Aviation Digital Data Service (ADDS)

Output produced by METARs form (0137 UTC 14 May 2021)
found at http://aviationweather.gov/metar/data/
 
METAR text: KLHX 140053Z AUTO 11007KT 10SM CLR 24/01 A3002 RMK AO2 SLP130 T02440011
Conditions at: KLHX (LA JUNTA , CO, US) observed 0053 UTC 14 May 2021
Temperature: 24.4°C (76°F)
Dewpoint: 1.1°C (34°F) [RH = 22%]
Pressure (altimeter): 30.02 inches Hg (1016.7 mb)
[Sea-level pressure: 1013.0 mb]
Winds: from the ESE (110 degrees) at 8 MPH (7 knots; 3.6 m/s)
Visibility: 10 or more miles (16+ km)
Ceiling: at least 12,000 feet AGL
Clouds: sky clear below 12,000 feet AGL
Weather: automated observation with no human augmentation;
there may or may not be significant weather present at this time